sensor_id;sensor_type;location;lat;lon;timestamp;P1;durP1;ratioP1;P2;durP2;ratioP2
77826;SDS011;67016;42.508;25.678;2023-05-07T00:01:58;15.68;;;7.45;;
77826;SDS011;67016;42.508;25.678;2023-05-07T00:04:23;14.20;;;7.07;;
77826;SDS011;67016;42.508;25.678;2023-05-07T00:06:49;13.80;;;6.75;;
77826;SDS011;67016;42.508;25.678;2023-05-07T00:09:15;10.35;;;6.70;;
77826;SDS011;67016;42.508;25.678;2023-05-07T00:11:41;8.98;;;6.80;;
77826;SDS011;67016;42.508;25.678;2023-05-07T00:14:07;8.45;;;6.05;;
77826;SDS011;67016;42.508;25.678;2023-05-07T00:16:33;8.80;;;5.93;;
77826;SDS011;67016;42.508;25.678;2023-05-07T00:18:58;10.50;;;6.30;;
77826;SDS011;67016;42.508;25.678;2023-05-07T00:21:25;12.20;;;6.70;;
77826;SDS011;67016;42.508;25.678;2023-05-07T00:23:53;10.32;;;6.10;;
77826;SDS011;67016;42.508;25.678;2023-05-07T00:26:19;16.00;;;7.18;;
77826;SDS011;67016;42.508;25.678;2023-05-07T00:28:46;10.43;;;7.10;;
77826;SDS011;67016;42.508;25.678;2023-05-07T00:31:12;10.05;;;6.95;;
77826;SDS011;67016;42.508;25.678;2023-05-07T00:33:38;8.00;;;6.25;;
77826;SDS011;67016;42.508;25.678;2023-05-07T00:36:03;12.23;;;6.13;;
77826;SDS011;67016;42.508;25.678;2023-05-07T00:38:30;11.80;;;6.53;;
77826;SDS011;67016;42.508;25.678;2023-05-07T00:40:55;10.15;;;6.72;;
77826;SDS011;67016;42.508;25.678;2023-05-07T00:43:21;8.18;;;5.85;;
77826;SDS011;67016;42.508;25.678;2023-05-07T00:45:47;9.25;;;6.15;;
77826;SDS011;67016;42.508;25.678;2023-05-07T00:48:12;13.18;;;6.28;;
77826;SDS011;67016;42.508;25.678;2023-05-07T00:50:38;9.38;;;6.50;;
77826;SDS011;67016;42.508;25.678;2023-05-07T00:53:04;11.32;;;7.53;;
77826;SDS011;67016;42.508;25.678;2023-05-07T00:55:30;11.40;;;7.40;;
77826;SDS011;67016;42.508;25.678;2023-05-07T00:57:56;10.05;;;6.75;;
77826;SDS011;67016;42.508;25.678;2023-05-07T01:00:23;11.55;;;7.70;;
77826;SDS011;67016;42.508;25.678;2023-05-07T01:02:50;10.65;;;6.40;;
77826;SDS011;67016;42.508;25.678;2023-05-07T01:05:16;12.70;;;6.72;;
77826;SDS011;67016;42.508;25.678;2023-05-07T01:07:43;13.05;;;7.15;;
77826;SDS011;67016;42.508;25.678;2023-05-07T01:10:09;10.57;;;6.82;;
77826;SDS011;67016;42.508;25.678;2023-05-07T01:12:35;9.77;;;6.75;;
77826;SDS011;67016;42.508;25.678;2023-05-07T01:15:02;13.75;;;7.60;;
77826;SDS011;67016;42.508;25.678;2023-05-07T01:17:29;13.02;;;7.72;;
77826;SDS011;67016;42.508;25.678;2023-05-07T01:19:55;10.48;;;7.47;;
77826;SDS011;67016;42.508;25.678;2023-05-07T01:22:33;11.73;;;7.75;;
77826;SDS011;67016;42.508;25.678;2023-05-07T01:25:00;13.55;;;9.05;;
77826;SDS011;67016;42.508;25.678;2023-05-07T01:27:27;11.88;;;8.18;;
77826;SDS011;67016;42.508;25.678;2023-05-07T01:29:52;14.65;;;10.40;;
77826;SDS011;67016;42.508;25.678;2023-05-07T01:32:19;30.67;;;18.10;;
77826;SDS011;67016;42.508;25.678;2023-05-07T01:34:48;31.08;;;17.65;;
77826;SDS011;67016;42.508;25.678;2023-05-07T01:37:15;29.20;;;15.20;;
77826;SDS011;67016;42.508;25.678;2023-05-07T01:39:42;25.23;;;15.20;;
77826;SDS011;67016;42.508;25.678;2023-05-07T01:42:07;26.42;;;14.85;;
77826;SDS011;67016;42.508;25.678;2023-05-07T01:44:33;27.17;;;15.07;;
77826;SDS011;67016;42.508;25.678;2023-05-07T01:46:59;26.02;;;15.75;;
77826;SDS011;67016;42.508;25.678;2023-05-07T01:49:25;26.05;;;14.18;;
77826;SDS011;67016;42.508;25.678;2023-05-07T01:51:51;31.23;;;13.80;;
77826;SDS011;67016;42.508;25.678;2023-05-07T01:54:17;24.10;;;14.38;;
77826;SDS011;67016;42.508;25.678;2023-05-07T01:56:42;22.88;;;14.40;;
77826;SDS011;67016;42.508;25.678;2023-05-07T01:59:08;19.73;;;12.52;;
77826;SDS011;67016;42.508;25.678;2023-05-07T02:01:34;24.50;;;12.85;;
77826;SDS011;67016;42.508;25.678;2023-05-07T02:03:59;19.80;;;12.88;;
77826;SDS011;67016;42.508;25.678;2023-05-07T02:06:25;21.42;;;12.95;;
77826;SDS011;67016;42.508;25.678;2023-05-07T02:08:51;23.08;;;12.65;;
77826;SDS011;67016;42.508;25.678;2023-05-07T02:11:16;23.20;;;12.63;;
77826;SDS011;67016;42.508;25.678;2023-05-07T02:13:42;20.55;;;11.23;;
77826;SDS011;67016;42.508;25.678;2023-05-07T02:16:08;20.25;;;12.40;;
77826;SDS011;67016;42.508;25.678;2023-05-07T02:18:34;21.60;;;11.25;;
77826;SDS011;67016;42.508;25.678;2023-05-07T02:21:00;25.75;;;12.20;;
77826;SDS011;67016;42.508;25.678;2023-05-07T02:23:26;22.23;;;13.23;;
77826;SDS011;67016;42.508;25.678;2023-05-07T02:25:52;19.55;;;11.25;;
77826;SDS011;67016;42.508;25.678;2023-05-07T02:28:17;19.25;;;10.93;;
77826;SDS011;67016;42.508;25.678;2023-05-07T02:30:43;18.15;;;10.85;;
77826;SDS011;67016;42.508;25.678;2023-05-07T02:33:09;18.23;;;11.27;;
77826;SDS011;67016;42.508;25.678;2023-05-07T02:35:34;13.57;;;10.70;;
77826;SDS011;67016;42.508;25.678;2023-05-07T02:38:00;17.85;;;10.63;;
77826;SDS011;67016;42.508;25.678;2023-05-07T02:40:26;15.82;;;10.60;;
77826;SDS011;67016;42.508;25.678;2023-05-07T02:42:51;16.55;;;10.68;;
77826;SDS011;67016;42.508;25.678;2023-05-07T02:45:17;22.38;;;10.68;;
77826;SDS011;67016;42.508;25.678;2023-05-07T02:47:43;21.55;;;10.02;;
77826;SDS011;67016;42.508;25.678;2023-05-07T02:50:09;18.73;;;10.32;;
77826;SDS011;67016;42.508;25.678;2023-05-07T02:52:34;19.13;;;10.57;;
77826;SDS011;67016;42.508;25.678;2023-05-07T02:55:00;21.73;;;10.20;;
77826;SDS011;67016;42.508;25.678;2023-05-07T02:57:26;18.33;;;10.43;;
77826;SDS011;67016;42.508;25.678;2023-05-07T02:59:51;15.48;;;10.27;;
77826;SDS011;67016;42.508;25.678;2023-05-07T03:02:17;22.40;;;10.95;;
77826;SDS011;67016;42.508;25.678;2023-05-07T03:04:43;16.50;;;10.45;;
77826;SDS011;67016;42.508;25.678;2023-05-07T03:07:09;22.02;;;10.95;;
77826;SDS011;67016;42.508;25.678;2023-05-07T03:09:34;17.70;;;9.90;;
77826;SDS011;67016;42.508;25.678;2023-05-07T03:12:00;16.73;;;9.40;;
77826;SDS011;67016;42.508;25.678;2023-05-07T03:14:26;16.40;;;10.15;;
77826;SDS011;67016;42.508;25.678;2023-05-07T03:16:52;15.27;;;10.15;;
77826;SDS011;67016;42.508;25.678;2023-05-07T03:19:18;17.70;;;10.23;;
77826;SDS011;67016;42.508;25.678;2023-05-07T03:21:44;12.10;;;9.60;;
77826;SDS011;67016;42.508;25.678;2023-05-07T03:24:09;14.23;;;9.23;;
77826;SDS011;67016;42.508;25.678;2023-05-07T03:26:35;14.55;;;9.07;;
77826;SDS011;67016;42.508;25.678;2023-05-07T03:29:01;16.23;;;9.32;;
77826;SDS011;67016;42.508;25.678;2023-05-07T03:31:26;12.52;;;9.13;;
77826;SDS011;67016;42.508;25.678;2023-05-07T03:33:53;15.77;;;9.80;;
77826;SDS011;67016;42.508;25.678;2023-05-07T03:36:21;16.50;;;9.70;;
77826;SDS011;67016;42.508;25.678;2023-05-07T03:38:47;15.10;;;10.85;;
77826;SDS011;67016;42.508;25.678;2023-05-07T03:41:13;21.40;;;11.30;;
77826;SDS011;67016;42.508;25.678;2023-05-07T03:43:39;19.77;;;11.68;;
77826;SDS011;67016;42.508;25.678;2023-05-07T03:46:05;24.98;;;11.38;;
77826;SDS011;67016;42.508;25.678;2023-05-07T03:48:30;23.48;;;12.52;;
77826;SDS011;67016;42.508;25.678;2023-05-07T03:50:57;23.55;;;13.85;;
77826;SDS011;67016;42.508;25.678;2023-05-07T03:53:23;25.58;;;16.85;;
77826;SDS011;67016;42.508;25.678;2023-05-07T03:55:48;19.85;;;14.10;;
77826;SDS011;67016;42.508;25.678;2023-05-07T03:58:15;22.40;;;13.60;;
77826;SDS011;67016;42.508;25.678;2023-05-07T04:00:40;19.70;;;13.88;;
77826;SDS011;67016;42.508;25.678;2023-05-07T04:03:06;19.17;;;13.70;;
77826;SDS011;67016;42.508;25.678;2023-05-07T04:05:32;18.83;;;12.90;;
77826;SDS011;67016;42.508;25.678;2023-05-07T04:07:58;21.77;;;12.95;;
77826;SDS011;67016;42.508;25.678;2023-05-07T04:10:24;20.73;;;11.98;;
77826;SDS011;67016;42.508;25.678;2023-05-07T04:12:50;21.17;;;13.38;;
77826;SDS011;67016;42.508;25.678;2023-05-07T04:15:16;17.95;;;13.43;;
77826;SDS011;67016;42.508;25.678;2023-05-07T04:17:41;19.83;;;12.88;;
77826;SDS011;67016;42.508;25.678;2023-05-07T04:20:12;21.55;;;13.77;;
77826;SDS011;67016;42.508;25.678;2023-05-07T04:22:39;17.73;;;13.73;;
77826;SDS011;67016;42.508;25.678;2023-05-07T04:25:05;25.50;;;15.50;;
77826;SDS011;67016;42.508;25.678;2023-05-07T04:27:33;20.77;;;14.18;;
77826;SDS011;67016;42.508;25.678;2023-05-07T04:29:58;20.52;;;14.05;;
77826;SDS011;67016;42.508;25.678;2023-05-07T04:32:26;26.80;;;15.02;;
77826;SDS011;67016;42.508;25.678;2023-05-07T04:34:52;25.73;;;14.85;;
77826;SDS011;67016;42.508;25.678;2023-05-07T04:37:17;21.60;;;14.43;;
77826;SDS011;67016;42.508;25.678;2023-05-07T04:39:43;21.05;;;13.77;;
77826;SDS011;67016;42.508;25.678;2023-05-07T04:42:09;21.60;;;14.70;;
77826;SDS011;67016;42.508;25.678;2023-05-07T04:44:40;22.35;;;13.88;;
77826;SDS011;67016;42.508;25.678;2023-05-07T04:47:06;20.92;;;13.65;;
77826;SDS011;67016;42.508;25.678;2023-05-07T04:49:32;26.30;;;13.15;;
77826;SDS011;67016;42.508;25.678;2023-05-07T04:51:57;18.35;;;12.48;;
77826;SDS011;67016;42.508;25.678;2023-05-07T04:54:23;18.45;;;12.38;;
77826;SDS011;67016;42.508;25.678;2023-05-07T04:56:48;18.48;;;12.15;;
77826;SDS011;67016;42.508;25.678;2023-05-07T04:59:14;19.30;;;12.63;;
77826;SDS011;67016;42.508;25.678;2023-05-07T05:01:40;18.60;;;11.93;;
77826;SDS011;67016;42.508;25.678;2023-05-07T05:04:06;18.58;;;10.73;;
77826;SDS011;67016;42.508;25.678;2023-05-07T05:06:31;18.58;;;10.75;;
77826;SDS011;67016;42.508;25.678;2023-05-07T05:08:57;17.20;;;10.75;;
77826;SDS011;67016;42.508;25.678;2023-05-07T05:11:23;16.05;;;10.52;;
77826;SDS011;67016;42.508;25.678;2023-05-07T05:13:49;13.23;;;10.27;;
77826;SDS011;67016;42.508;25.678;2023-05-07T05:16:14;15.80;;;10.43;;
77826;SDS011;67016;42.508;25.678;2023-05-07T05:18:40;12.43;;;9.75;;
77826;SDS011;67016;42.508;25.678;2023-05-07T05:21:06;17.05;;;8.93;;
77826;SDS011;67016;42.508;25.678;2023-05-07T05:23:32;13.18;;;8.40;;
77826;SDS011;67016;42.508;25.678;2023-05-07T05:25:58;13.35;;;9.10;;
77826;SDS011;67016;42.508;25.678;2023-05-07T05:28:24;14.38;;;8.70;;
77826;SDS011;67016;42.508;25.678;2023-05-07T05:30:49;11.75;;;7.75;;
77826;SDS011;67016;42.508;25.678;2023-05-07T05:33:15;11.93;;;8.32;;
77826;SDS011;67016;42.508;25.678;2023-05-07T05:35:41;11.88;;;6.78;;
77826;SDS011;67016;42.508;25.678;2023-05-07T05:38:07;9.50;;;6.32;;
77826;SDS011;67016;42.508;25.678;2023-05-07T05:40:33;7.15;;;5.30;;
77826;SDS011;67016;42.508;25.678;2023-05-07T05:42:59;7.72;;;4.78;;
77826;SDS011;67016;42.508;25.678;2023-05-07T05:45:25;6.80;;;4.45;;
77826;SDS011;67016;42.508;25.678;2023-05-07T05:47:51;10.52;;;4.88;;
77826;SDS011;67016;42.508;25.678;2023-05-07T05:50:16;8.40;;;5.45;;
77826;SDS011;67016;42.508;25.678;2023-05-07T05:52:42;6.57;;;4.10;;
77826;SDS011;67016;42.508;25.678;2023-05-07T05:55:08;6.53;;;4.05;;
77826;SDS011;67016;42.508;25.678;2023-05-07T05:57:34;5.28;;;3.78;;
77826;SDS011;67016;42.508;25.678;2023-05-07T06:00:00;8.48;;;3.85;;
77826;SDS011;67016;42.508;25.678;2023-05-07T06:02:27;6.75;;;3.25;;
77826;SDS011;67016;42.508;25.678;2023-05-07T06:04:53;6.25;;;3.88;;
77826;SDS011;67016;42.508;25.678;2023-05-07T06:07:19;7.68;;;3.90;;
77826;SDS011;67016;42.508;25.678;2023-05-07T06:09:44;6.88;;;3.80;;
77826;SDS011;67016;42.508;25.678;2023-05-07T06:12:11;4.97;;;3.40;;
77826;SDS011;67016;42.508;25.678;2023-05-07T06:14:37;7.70;;;3.40;;
77826;SDS011;67016;42.508;25.678;2023-05-07T06:17:03;4.53;;;3.20;;
77826;SDS011;67016;42.508;25.678;2023-05-07T06:19:28;4.68;;;3.55;;
77826;SDS011;67016;42.508;25.678;2023-05-07T06:21:54;7.15;;;4.22;;
77826;SDS011;67016;42.508;25.678;2023-05-07T06:24:21;6.95;;;3.92;;
77826;SDS011;67016;42.508;25.678;2023-05-07T06:26:47;6.22;;;3.72;;
77826;SDS011;67016;42.508;25.678;2023-05-07T06:29:13;8.57;;;3.85;;
77826;SDS011;67016;42.508;25.678;2023-05-07T06:31:39;5.57;;;3.28;;
77826;SDS011;67016;42.508;25.678;2023-05-07T06:34:05;9.23;;;3.67;;
77826;SDS011;67016;42.508;25.678;2023-05-07T06:36:31;5.35;;;3.35;;
77826;SDS011;67016;42.508;25.678;2023-05-07T06:38:57;6.82;;;2.95;;
77826;SDS011;67016;42.508;25.678;2023-05-07T06:41:22;5.35;;;3.25;;
77826;SDS011;67016;42.508;25.678;2023-05-07T06:43:48;5.28;;;2.58;;
77826;SDS011;67016;42.508;25.678;2023-05-07T06:46:14;4.93;;;3.40;;
77826;SDS011;67016;42.508;25.678;2023-05-07T06:48:40;5.18;;;3.30;;
77826;SDS011;67016;42.508;25.678;2023-05-07T06:51:05;7.53;;;2.92;;
77826;SDS011;67016;42.508;25.678;2023-05-07T06:53:31;6.63;;;2.70;;
77826;SDS011;67016;42.508;25.678;2023-05-07T06:55:57;12.77;;;4.25;;
77826;SDS011;67016;42.508;25.678;2023-05-07T06:58:22;7.07;;;3.25;;
77826;SDS011;67016;42.508;25.678;2023-05-07T07:00:48;6.00;;;3.38;;
77826;SDS011;67016;42.508;25.678;2023-05-07T07:03:14;8.60;;;3.72;;
77826;SDS011;67016;42.508;25.678;2023-05-07T07:05:40;10.15;;;3.60;;
77826;SDS011;67016;42.508;25.678;2023-05-07T07:08:07;6.70;;;3.42;;
77826;SDS011;67016;42.508;25.678;2023-05-07T07:10:33;6.80;;;3.55;;
77826;SDS011;67016;42.508;25.678;2023-05-07T07:12:58;4.57;;;2.92;;
77826;SDS011;67016;42.508;25.678;2023-05-07T07:15:24;7.05;;;2.72;;
77826;SDS011;67016;42.508;25.678;2023-05-07T07:17:51;4.45;;;3.15;;
77826;SDS011;67016;42.508;25.678;2023-05-07T07:20:16;3.78;;;2.70;;
77826;SDS011;67016;42.508;25.678;2023-05-07T07:22:42;4.82;;;2.42;;
77826;SDS011;67016;42.508;25.678;2023-05-07T07:25:08;4.13;;;2.75;;
77826;SDS011;67016;42.508;25.678;2023-05-07T07:27:34;5.43;;;2.72;;
77826;SDS011;67016;42.508;25.678;2023-05-07T07:30:01;4.07;;;2.60;;
77826;SDS011;67016;42.508;25.678;2023-05-07T07:32:26;6.72;;;2.90;;
77826;SDS011;67016;42.508;25.678;2023-05-07T07:34:52;5.70;;;2.80;;
77826;SDS011;67016;42.508;25.678;2023-05-07T07:37:18;5.75;;;2.78;;
77826;SDS011;67016;42.508;25.678;2023-05-07T07:39:43;6.70;;;2.28;;
77826;SDS011;67016;42.508;25.678;2023-05-07T07:42:09;4.40;;;2.65;;
77826;SDS011;67016;42.508;25.678;2023-05-07T07:44:35;2.13;;;1.92;;
77826;SDS011;67016;42.508;25.678;2023-05-07T07:47:00;3.25;;;2.33;;
77826;SDS011;67016;42.508;25.678;2023-05-07T07:49:26;5.75;;;2.38;;
77826;SDS011;67016;42.508;25.678;2023-05-07T07:51:52;7.35;;;3.22;;
77826;SDS011;67016;42.508;25.678;2023-05-07T07:54:18;5.25;;;2.88;;
77826;SDS011;67016;42.508;25.678;2023-05-07T07:56:43;5.38;;;2.50;;
77826;SDS011;67016;42.508;25.678;2023-05-07T07:59:09;3.05;;;2.30;;
77826;SDS011;67016;42.508;25.678;2023-05-07T08:01:35;4.80;;;2.15;;
77826;SDS011;67016;42.508;25.678;2023-05-07T08:04:00;5.32;;;2.20;;
77826;SDS011;67016;42.508;25.678;2023-05-07T08:06:28;3.80;;;2.45;;
77826;SDS011;67016;42.508;25.678;2023-05-07T08:08:54;3.28;;;1.90;;
77826;SDS011;67016;42.508;25.678;2023-05-07T08:11:20;3.92;;;2.15;;
77826;SDS011;67016;42.508;25.678;2023-05-07T08:13:47;4.93;;;2.47;;
77826;SDS011;67016;42.508;25.678;2023-05-07T08:16:13;5.47;;;2.53;;
77826;SDS011;67016;42.508;25.678;2023-05-07T08:18:38;5.07;;;2.65;;
77826;SDS011;67016;42.508;25.678;2023-05-07T08:21:04;7.32;;;2.60;;
77826;SDS011;67016;42.508;25.678;2023-05-07T08:23:30;6.93;;;2.10;;
77826;SDS011;67016;42.508;25.678;2023-05-07T08:25:56;6.60;;;2.30;;
77826;SDS011;67016;42.508;25.678;2023-05-07T08:28:21;10.10;;;2.42;;
77826;SDS011;67016;42.508;25.678;2023-05-07T08:30:49;4.05;;;2.28;;
77826;SDS011;67016;42.508;25.678;2023-05-07T08:33:16;3.53;;;2.20;;
77826;SDS011;67016;42.508;25.678;2023-05-07T08:35:42;7.40;;;2.45;;
77826;SDS011;67016;42.508;25.678;2023-05-07T08:38:07;5.28;;;1.80;;
77826;SDS011;67016;42.508;25.678;2023-05-07T08:40:36;5.13;;;2.10;;
77826;SDS011;67016;42.508;25.678;2023-05-07T08:43:04;6.57;;;2.75;;
77826;SDS011;67016;42.508;25.678;2023-05-07T08:45:30;7.65;;;2.10;;
77826;SDS011;67016;42.508;25.678;2023-05-07T08:47:59;4.55;;;2.03;;
77826;SDS011;67016;42.508;25.678;2023-05-07T08:50:26;5.10;;;2.20;;
77826;SDS011;67016;42.508;25.678;2023-05-07T08:52:52;7.63;;;2.55;;
77826;SDS011;67016;42.508;25.678;2023-05-07T08:55:19;4.40;;;2.00;;
77826;SDS011;67016;42.508;25.678;2023-05-07T08:57:45;5.78;;;2.15;;
77826;SDS011;67016;42.508;25.678;2023-05-07T09:00:12;11.80;;;2.40;;
77826;SDS011;67016;42.508;25.678;2023-05-07T09:02:38;6.13;;;1.98;;
77826;SDS011;67016;42.508;25.678;2023-05-07T09:05:04;5.53;;;1.90;;
77826;SDS011;67016;42.508;25.678;2023-05-07T09:07:30;10.82;;;3.72;;
77826;SDS011;67016;42.508;25.678;2023-05-07T09:09:56;4.85;;;2.38;;
77826;SDS011;67016;42.508;25.678;2023-05-07T09:12:22;14.32;;;9.27;;
77826;SDS011;67016;42.508;25.678;2023-05-07T09:14:48;5.13;;;2.38;;
77826;SDS011;67016;42.508;25.678;2023-05-07T09:17:17;6.40;;;2.30;;
77826;SDS011;67016;42.508;25.678;2023-05-07T09:19:44;16.80;;;11.00;;
77826;SDS011;67016;42.508;25.678;2023-05-07T09:22:10;3.75;;;2.15;;
77826;SDS011;67016;42.508;25.678;2023-05-07T09:24:36;5.35;;;2.78;;
77826;SDS011;67016;42.508;25.678;2023-05-07T09:27:03;3.10;;;2.03;;
77826;SDS011;67016;42.508;25.678;2023-05-07T09:29:30;5.47;;;2.15;;
77826;SDS011;67016;42.508;25.678;2023-05-07T09:32:03;3.70;;;2.10;;
77826;SDS011;67016;42.508;25.678;2023-05-07T09:34:32;8.93;;;2.50;;
77826;SDS011;67016;42.508;25.678;2023-05-07T09:36:59;4.07;;;2.00;;
77826;SDS011;67016;42.508;25.678;2023-05-07T09:39:26;7.97;;;2.45;;
77826;SDS011;67016;42.508;25.678;2023-05-07T09:41:52;2.13;;;1.80;;
77826;SDS011;67016;42.508;25.678;2023-05-07T09:44:20;8.02;;;2.53;;
77826;SDS011;67016;42.508;25.678;2023-05-07T09:46:47;2.70;;;1.80;;
77826;SDS011;67016;42.508;25.678;2023-05-07T09:49:22;4.60;;;2.00;;
77826;SDS011;67016;42.508;25.678;2023-05-07T09:51:51;3.30;;;2.00;;
77826;SDS011;67016;42.508;25.678;2023-05-07T09:54:18;5.47;;;1.98;;
77826;SDS011;67016;42.508;25.678;2023-05-07T09:56:50;6.15;;;2.03;;
77826;SDS011;67016;42.508;25.678;2023-05-07T09:59:17;3.35;;;2.15;;
77826;SDS011;67016;42.508;25.678;2023-05-07T10:01:43;5.40;;;2.17;;
77826;SDS011;67016;42.508;25.678;2023-05-07T10:04:10;3.47;;;2.30;;
77826;SDS011;67016;42.508;25.678;2023-05-07T10:06:37;3.33;;;1.98;;
77826;SDS011;67016;42.508;25.678;2023-05-07T10:09:04;3.10;;;1.77;;
77826;SDS011;67016;42.508;25.678;2023-05-07T10:11:34;5.63;;;2.10;;
77826;SDS011;67016;42.508;25.678;2023-05-07T10:14:01;6.20;;;2.33;;
77826;SDS011;67016;42.508;25.678;2023-05-07T10:16:31;6.15;;;2.47;;
77826;SDS011;67016;42.508;25.678;2023-05-07T10:19:05;3.97;;;1.92;;
77826;SDS011;67016;42.508;25.678;2023-05-07T10:22:17;4.32;;;2.10;;
77826;SDS011;67016;42.508;25.678;2023-05-07T10:24:25;5.20;;;1.92;;
77826;SDS011;67016;42.508;25.678;2023-05-07T10:26:52;8.35;;;2.55;;
77826;SDS011;67016;42.508;25.678;2023-05-07T10:29:21;2.90;;;1.77;;
77826;SDS011;67016;42.508;25.678;2023-05-07T10:34:21;3.20;;;1.95;;
77826;SDS011;67016;42.508;25.678;2023-05-07T10:36:51;7.00;;;2.45;;
77826;SDS011;67016;42.508;25.678;2023-05-07T10:39:18;4.13;;;2.20;;
77826;SDS011;67016;42.508;25.678;2023-05-07T10:41:45;6.28;;;2.10;;
77826;SDS011;67016;42.508;25.678;2023-05-07T10:44:11;4.43;;;1.98;;
77826;SDS011;67016;42.508;25.678;2023-05-07T10:46:36;3.88;;;1.92;;
77826;SDS011;67016;42.508;25.678;2023-05-07T10:51:30;4.03;;;1.95;;
77826;SDS011;67016;42.508;25.678;2023-05-07T10:56:45;3.20;;;2.03;;
77826;SDS011;67016;42.508;25.678;2023-05-07T11:01:54;4.22;;;2.08;;
77826;SDS011;67016;42.508;25.678;2023-05-07T11:04:21;4.07;;;2.05;;
77826;SDS011;67016;42.508;25.678;2023-05-07T11:15:02;4.28;;;2.28;;
77826;SDS011;67016;42.508;25.678;2023-05-07T11:17:30;4.50;;;1.98;;
77826;SDS011;67016;42.508;25.678;2023-05-07T11:19:59;7.80;;;2.50;;
77826;SDS011;67016;42.508;25.678;2023-05-07T11:25:04;2.50;;;2.00;;
77826;SDS011;67016;42.508;25.678;2023-05-07T11:27:31;4.75;;;2.00;;
77826;SDS011;67016;42.508;25.678;2023-05-07T11:29:57;3.10;;;1.98;;
77826;SDS011;67016;42.508;25.678;2023-05-07T11:32:30;4.47;;;1.70;;
77826;SDS011;67016;42.508;25.678;2023-05-07T11:39:51;5.78;;;2.13;;
77826;SDS011;67016;42.508;25.678;2023-05-07T11:44:55;3.47;;;1.73;;
77826;SDS011;67016;42.508;25.678;2023-05-07T11:47:21;2.00;;;1.80;;
77826;SDS011;67016;42.508;25.678;2023-05-07T11:49:47;4.85;;;2.25;;
77826;SDS011;67016;42.508;25.678;2023-05-07T11:52:14;4.22;;;2.17;;
77826;SDS011;67016;42.508;25.678;2023-05-07T11:54:40;3.28;;;2.20;;
77826;SDS011;67016;42.508;25.678;2023-05-07T11:57:06;2.75;;;1.90;;
77826;SDS011;67016;42.508;25.678;2023-05-07T11:59:38;3.35;;;1.83;;
77826;SDS011;67016;42.508;25.678;2023-05-07T12:02:06;3.22;;;1.85;;
77826;SDS011;67016;42.508;25.678;2023-05-07T12:04:32;3.15;;;2.00;;
77826;SDS011;67016;42.508;25.678;2023-05-07T12:06:58;3.03;;;2.13;;
77826;SDS011;67016;42.508;25.678;2023-05-07T12:09:23;2.53;;;1.83;;
77826;SDS011;67016;42.508;25.678;2023-05-07T12:11:49;6.78;;;2.22;;
77826;SDS011;67016;42.508;25.678;2023-05-07T12:14:17;3.45;;;1.90;;
77826;SDS011;67016;42.508;25.678;2023-05-07T12:16:43;4.53;;;2.03;;
77826;SDS011;67016;42.508;25.678;2023-05-07T12:19:09;4.43;;;2.10;;
77826;SDS011;67016;42.508;25.678;2023-05-07T12:21:37;3.65;;;1.95;;
77826;SDS011;67016;42.508;25.678;2023-05-07T12:24:04;3.80;;;2.28;;
77826;SDS011;67016;42.508;25.678;2023-05-07T12:26:30;8.45;;;2.00;;
77826;SDS011;67016;42.508;25.678;2023-05-07T12:28:59;4.55;;;2.08;;
77826;SDS011;67016;42.508;25.678;2023-05-07T12:31:27;5.78;;;2.03;;
77826;SDS011;67016;42.508;25.678;2023-05-07T12:33:53;4.85;;;2.08;;
77826;SDS011;67016;42.508;25.678;2023-05-07T12:36:19;4.15;;;2.00;;
77826;SDS011;67016;42.508;25.678;2023-05-07T12:38:46;5.00;;;2.03;;
77826;SDS011;67016;42.508;25.678;2023-05-07T12:41:15;3.28;;;2.10;;
77826;SDS011;67016;42.508;25.678;2023-05-07T12:43:44;3.58;;;2.20;;
77826;SDS011;67016;42.508;25.678;2023-05-07T12:46:11;3.83;;;1.88;;
77826;SDS011;67016;42.508;25.678;2023-05-07T12:48:43;4.32;;;1.92;;
77826;SDS011;67016;42.508;25.678;2023-05-07T12:51:13;7.00;;;2.25;;
77826;SDS011;67016;42.508;25.678;2023-05-07T12:53:40;3.20;;;2.00;;
77826;SDS011;67016;42.508;25.678;2023-05-07T12:56:07;3.15;;;1.77;;
77826;SDS011;67016;42.508;25.678;2023-05-07T12:58:33;9.13;;;2.00;;
77826;SDS011;67016;42.508;25.678;2023-05-07T13:01:01;6.72;;;2.17;;
77826;SDS011;67016;42.508;25.678;2023-05-07T13:03:30;4.15;;;1.88;;
77826;SDS011;67016;42.508;25.678;2023-05-07T13:06:15;3.20;;;1.77;;
77826;SDS011;67016;42.508;25.678;2023-05-07T13:08:41;4.20;;;2.17;;
77826;SDS011;67016;42.508;25.678;2023-05-07T13:11:10;2.90;;;1.80;;
77826;SDS011;67016;42.508;25.678;2023-05-07T13:13:37;3.72;;;1.90;;
77826;SDS011;67016;42.508;25.678;2023-05-07T13:16:05;4.18;;;2.00;;
77826;SDS011;67016;42.508;25.678;2023-05-07T13:18:33;4.07;;;1.83;;
77826;SDS011;67016;42.508;25.678;2023-05-07T13:20:59;3.35;;;1.63;;
77826;SDS011;67016;42.508;25.678;2023-05-07T13:23:26;5.10;;;1.90;;
77826;SDS011;67016;42.508;25.678;2023-05-07T13:25:52;3.67;;;1.92;;
77826;SDS011;67016;42.508;25.678;2023-05-07T13:28:21;3.95;;;2.00;;
77826;SDS011;67016;42.508;25.678;2023-05-07T13:30:48;3.50;;;1.80;;
77826;SDS011;67016;42.508;25.678;2023-05-07T13:33:14;3.00;;;1.50;;
77826;SDS011;67016;42.508;25.678;2023-05-07T13:35:41;3.75;;;1.83;;
77826;SDS011;67016;42.508;25.678;2023-05-07T13:38:06;4.20;;;2.08;;
77826;SDS011;67016;42.508;25.678;2023-05-07T13:40:33;3.78;;;2.00;;
77826;SDS011;67016;42.508;25.678;2023-05-07T13:42:58;4.85;;;1.70;;
77826;SDS011;67016;42.508;25.678;2023-05-07T13:45:25;3.60;;;1.73;;
77826;SDS011;67016;42.508;25.678;2023-05-07T13:47:51;4.35;;;1.70;;
77826;SDS011;67016;42.508;25.678;2023-05-07T13:50:17;3.03;;;1.80;;
77826;SDS011;67016;42.508;25.678;2023-05-07T13:52:43;2.63;;;1.80;;
77826;SDS011;67016;42.508;25.678;2023-05-07T13:55:19;2.42;;;1.58;;
77826;SDS011;67016;42.508;25.678;2023-05-07T14:00:11;4.90;;;2.15;;
77826;SDS011;67016;42.508;25.678;2023-05-07T14:02:38;4.68;;;2.13;;
77826;SDS011;67016;42.508;25.678;2023-05-07T14:05:04;3.38;;;1.42;;
77826;SDS011;67016;42.508;25.678;2023-05-07T14:07:30;6.80;;;1.73;;
77826;SDS011;67016;42.508;25.678;2023-05-07T14:09:56;3.63;;;1.80;;
77826;SDS011;67016;42.508;25.678;2023-05-07T14:12:22;2.60;;;2.10;;
77826;SDS011;67016;42.508;25.678;2023-05-07T14:14:48;3.28;;;2.03;;
77826;SDS011;67016;42.508;25.678;2023-05-07T14:17:15;4.45;;;2.25;;
77826;SDS011;67016;42.508;25.678;2023-05-07T14:19:43;2.40;;;1.93;;
77826;SDS011;67016;42.508;25.678;2023-05-07T14:22:09;4.70;;;1.70;;
77826;SDS011;67016;42.508;25.678;2023-05-07T14:24:35;2.45;;;1.70;;
77826;SDS011;67016;42.508;25.678;2023-05-07T14:27:01;2.40;;;1.60;;
77826;SDS011;67016;42.508;25.678;2023-05-07T14:29:27;7.07;;;1.70;;
77826;SDS011;67016;42.508;25.678;2023-05-07T14:31:53;4.32;;;1.73;;
77826;SDS011;67016;42.508;25.678;2023-05-07T14:34:19;6.40;;;1.70;;
77826;SDS011;67016;42.508;25.678;2023-05-07T14:36:45;4.53;;;1.98;;
77826;SDS011;67016;42.508;25.678;2023-05-07T14:39:10;12.40;;;2.20;;
77826;SDS011;67016;42.508;25.678;2023-05-07T14:41:36;2.85;;;1.73;;
77826;SDS011;67016;42.508;25.678;2023-05-07T14:44:02;3.72;;;1.65;;
77826;SDS011;67016;42.508;25.678;2023-05-07T14:46:29;1.80;;;1.60;;
77826;SDS011;67016;42.508;25.678;2023-05-07T14:48:56;1.95;;;1.40;;
77826;SDS011;67016;42.508;25.678;2023-05-07T14:51:22;3.83;;;1.80;;
77826;SDS011;67016;42.508;25.678;2023-05-07T14:53:49;4.35;;;1.80;;